Gale Warning
Issued at: 05:00 AM TODAY , 23 November 2017
Gale Warning # 1
For: STRONG TO GALE FORCE WINDS ASSOCIATED WITH THE SURGE OF NORTHEAST MONSOON

Gale Warning in PDF file





Dams Water Level Update
As of 6 AM, 26 SEPTEMBER 2017

General Flood Advisories - Regional
Issued as of 7AM 07 August 2017


Daily Basin Hydrological Forecast
Issued 21 FEBRUARY 2017




Monthly Climate Assessment and Outlook

Issued: 05 June 2017

Monthly Rainfall Forecast
RAINFALL FORECAST  (October 2017 - March 2018) 
UPDATED: 20 September 2017 (next update October 2017)


Regional Rainfall Forecast
Issued: 20 September 2017
Valid for: October 2017 - March 2018
Farm Weather Forecast and Advisories
ISSUED              : 8AM, THURSDAY, SEPTEMBER 7, 2017
VALID UNTIL      :  8AM, FRIDAY, SEPTEMBER 8, 2017
FWFA:  N0. 17-251

Ten-Day Regional Agri-Weather Information
DEKAD NO. 25 SEPTEMBER 1-10, 2017

PHILIPPINE AGRI-WEATHER FORECAST
The weather systems that will affect the whole country are southwest monsoon, intertropical convergence zone (ITCZ) and low pressure area (LPA).
Seasonal Climate Outlook
Issued:  06 July 2017
FOR July - December 2017
PDF




Astronomical Diary
Issued for November 2017
On November 13 at 5:00 AM, Venus and Jupiter will be located low in the eastern horizon among...




   PAGASA webmail  Learning Tools  Bidding 

  Training Activities  Vacancy  Research-and-Development

  Engineering  faqupdate  Publications 

TAF RPLL

281700Z 2818/0124 11008KT 9999 FEW025 SCT100 TX32/0106Z TN25/2821Z TEMPO 2818/2824 10006KT FEW023 BKN100 TEMPO 0106/0112 12010KT FEW025 BKN100=
TAF RPVM

281700Z 2818/0124 02010KT 9999 FEW020 BKN300 TEMPO 2818/2824 35008KT FEW020 BKN090 TEMPO 0106/0112 01012KT FEW020 SCT100 BKN250=
TAF RPLB

281700Z 2818/0118 05006KT 9999 FEW020 SCT300 TX33/0106Z TN24/2822Z TEMPO 2818/2824 06012KT FEW020 BKN080=
TAF RPLC

281700Z 2818/0118 11008KT 9999 FEW020 BKN300 TX31/0106Z TN24/2821Z TEMPO 2818/2824 33008KT SCT020 BKN300=
TAF RPLI

281700Z 2818/0118 36010KT 9999 FEW019 TEMPO 2818/2824 04004KT FEW019 SCT100=
TAF RPVP

281700Z 2818/0118 09010KT 9999 FEW019 SCT250 TEMPO 2818/2824 29006KT FEW019 SCT080=
TAF RPVD

281700Z 2818/0118 04008KT 9999 FEW015 SCT080 BKN220 TEMPO 2818/2824 34004KT SCT015 BKN080=
TAF RPMR

281700Z 2818/0118 04006KT 9999 FEW018 SCT080 TEMPO 2818/2824 36004KT FEW018 BKN250=
TAF RPMD

281700Z 2818/0118 36006KT 9999 FEW016 SCT290 TEMPO 2818/2824 35004KT FEW016 BKN290=
TAF RPMZ

281700Z 2818/0118 20004KT 9999 FEW017 SCT300 TEMPO 2818/2824 00000KT FEW017 SCT100=
RPLL FORECAST TAKE-OFF CONDITION
TIME

(UTC)

WIND

(dddffKT)

TEMP

(°C)

QNH

(hPa)

TIME

(UTC)

WIND

(dddffKT)

TEMP

(°C)

QNH

(hPa)

1800

10006KT

26.0

1012.0

2100

12005KT

25.0

1012.0

1900

10004KT

25.5

1011.5

2200

11004KT

25.5

1012.5

2000

09006KT

25.5

1011.5

2300

10006KT

26.0

1013.0

ISSUED AT NAIA AMSS-WD/PAGASA-DOST FOR 1700UTC 28 FEB 2017
PREPARED BY:            MCM                  CHECKED BY:          EBM 
bannermdsi

PUBLIC WARNING 


It has come to the attention of the Office of the Administrator of PAGASA that a certain person has been using the name of Dr. Vicente B. Malano to solicit money from the contractors of PAGASA.

Dr. Malano wishes to inform the public that he has not authorized anyone to solicit money on his behalf and to warn everyone against dealing with unscrupulous activities of certain individuals.



payong pagasa on android The latest version of the official PAGASA app can now be downloaded on Google play store

Weather Division is now  ISO 9001:2008 Certified
Proof has been furnished by means of an audit that the requirements of ISO 9001:2008 are met.

Read more ...


PRESS RELEASE
24 May 2017

START OF SOUTHWEST MONSOON

Southwesterly windflow has been dominant over the West Philippine Sea for several days now. This is due to the formation of semi-permanent trough over Northern Luzon-Taiwan area and the eastward migration of the North Pacific High Pressure Area which are the prominent indicators of the southwest monsoon onset in the country. 

Likewise, the prevailing weather condition in most parts of Luzon and Visayas particularly the western section is now warm and humid as characterized by occasional to frequent occurrences of afternoon-evening or early morning rainshowers and thunderstorms. These developments signify the approaching onset of rainy season under Type 1 climate covering the western parts of Luzon and Visayas.


Read more ...
DOST-PAGASA S&T Release

17 May 2017

To further strengthen its weather forecasting capabilities, the Philippine Atmospheric, Geophysical, and Astronomical Services Administration (PAGASA), in partnership with the Korea International Cooperation Agency (KOICA), inaugurates the new Communication, Ocean and Meteorological Satellite (COMS) Data Analysis System at the PAGASA Weather and Flood Forecasting Center in Quezon City.
Read more ...